sensor_id;sensor_type;location;lat;lon;timestamp;P1;P2;P0
50837;PMS5003;36815;50.884;20.584;2022-07-17T00:07:04;3;3;2
50837;PMS5003;36815;50.884;20.584;2022-07-17T00:14:15;3;3;2
50837;PMS5003;36815;50.884;20.584;2022-07-17T00:21:05;3;3;2
50837;PMS5003;36815;50.884;20.584;2022-07-17T00:28:18;3;3;2
50837;PMS5003;36815;50.884;20.584;2022-07-17T00:35:18;3;3;2
50837;PMS5003;36815;50.884;20.584;2022-07-17T00:42:22;3;3;2
50837;PMS5003;36815;50.884;20.584;2022-07-17T00:49:29;3;3;2
50837;PMS5003;36815;50.884;20.584;2022-07-17T00:56:19;3;3;2
50837;PMS5003;36815;50.884;20.584;2022-07-17T01:00:22;3;3;2
50837;PMS5003;36815;50.884;20.584;2022-07-17T01:07:09;2;2;2
50837;PMS5003;36815;50.884;20.584;2022-07-17T01:14:02;2;2;2
50837;PMS5003;36815;50.884;20.584;2022-07-17T01:21:18;2;2;2
50837;PMS5003;36815;50.884;20.584;2022-07-17T01:28:05;2;2;2
50837;PMS5003;36815;50.884;20.584;2022-07-17T01:35:08;4;4;3
50837;PMS5003;36815;50.884;20.584;2022-07-17T01:42:19;4;4;3
50837;PMS5003;36815;50.884;20.584;2022-07-17T01:49:04;4;4;3
50837;PMS5003;36815;50.884;20.584;2022-07-17T01:56:08;4;4;3
50837;PMS5003;36815;50.884;20.584;2022-07-17T02:00:15;4;4;3
50837;PMS5003;36815;50.884;20.584;2022-07-17T02:07:21;3;3;3
50837;PMS5003;36815;50.884;20.584;2022-07-17T02:14:07;3;3;3
50837;PMS5003;36815;50.884;20.584;2022-07-17T02:21:03;3;3;3
50837;PMS5003;36815;50.884;20.584;2022-07-17T02:28:06;3;3;3
50837;PMS5003;36815;50.884;20.584;2022-07-17T02:35:22;2;2;1
50837;PMS5003;36815;50.884;20.584;2022-07-17T02:42:18;2;2;1
50837;PMS5003;36815;50.884;20.584;2022-07-17T02:49:04;2;2;1
50837;PMS5003;36815;50.884;20.584;2022-07-17T02:56:16;2;2;1
50837;PMS5003;36815;50.884;20.584;2022-07-17T03:00:20;2;2;1
50837;PMS5003;36815;50.884;20.584;2022-07-17T03:07:03;3;3;2
50837;PMS5003;36815;50.884;20.584;2022-07-17T03:14:16;3;3;2
50837;PMS5003;36815;50.884;20.584;2022-07-17T03:21:06;3;3;2
50837;PMS5003;36815;50.884;20.584;2022-07-17T03:28:16;3;3;2
50837;PMS5003;36815;50.884;20.584;2022-07-17T03:42:16;4;3;2
50837;PMS5003;36815;50.884;20.584;2022-07-17T03:49:19;4;3;2
50837;PMS5003;36815;50.884;20.584;2022-07-17T03:56:02;4;3;2
50837;PMS5003;36815;50.884;20.584;2022-07-17T04:00:17;4;3;2
50837;PMS5003;36815;50.884;20.584;2022-07-17T04:07:33;3;3;2
50837;PMS5003;36815;50.884;20.584;2022-07-17T04:14:05;3;3;2
50837;PMS5003;36815;50.884;20.584;2022-07-17T04:21:10;3;3;2
50837;PMS5003;36815;50.884;20.584;2022-07-17T04:28:17;3;3;2
50837;PMS5003;36815;50.884;20.584;2022-07-17T04:35:07;2;2;1
50837;PMS5003;36815;50.884;20.584;2022-07-17T04:42:17;2;2;1
50837;PMS5003;36815;50.884;20.584;2022-07-17T04:49:22;2;2;1
50837;PMS5003;36815;50.884;20.584;2022-07-17T04:56:03;2;2;1
50837;PMS5003;36815;50.884;20.584;2022-07-17T05:00:18;2;2;1
50837;PMS5003;36815;50.884;20.584;2022-07-17T05:07:03;4;3;2
50837;PMS5003;36815;50.884;20.584;2022-07-17T05:14:02;4;3;2
50837;PMS5003;36815;50.884;20.584;2022-07-17T05:21:03;4;3;2
50837;PMS5003;36815;50.884;20.584;2022-07-17T05:28:18;4;3;2
50837;PMS5003;36815;50.884;20.584;2022-07-17T05:35:18;2;2;1
50837;PMS5003;36815;50.884;20.584;2022-07-17T05:42:17;2;2;1
50837;PMS5003;36815;50.884;20.584;2022-07-17T05:49:05;2;2;1
50837;PMS5003;36815;50.884;20.584;2022-07-17T05:56:08;2;2;1
50837;PMS5003;36815;50.884;20.584;2022-07-17T06:00:06;2;2;1
50837;PMS5003;36815;50.884;20.584;2022-07-17T06:07:03;2;2;1
50837;PMS5003;36815;50.884;20.584;2022-07-17T06:14:19;2;2;1
50837;PMS5003;36815;50.884;20.584;2022-07-17T06:21:18;2;2;1
50837;PMS5003;36815;50.884;20.584;2022-07-17T06:28:15;2;2;1
50837;PMS5003;36815;50.884;20.584;2022-07-17T06:35:23;1;1;1
50837;PMS5003;36815;50.884;20.584;2022-07-17T06:42:05;1;1;1
50837;PMS5003;36815;50.884;20.584;2022-07-17T06:49:20;1;1;1
50837;PMS5003;36815;50.884;20.584;2022-07-17T06:56:06;1;1;1
50837;PMS5003;36815;50.884;20.584;2022-07-17T07:00:09;1;1;1
50837;PMS5003;36815;50.884;20.584;2022-07-17T07:07:16;2;2;2
50837;PMS5003;36815;50.884;20.584;2022-07-17T07:14:09;2;2;2
50837;PMS5003;36815;50.884;20.584;2022-07-17T07:21:08;2;2;2
50837;PMS5003;36815;50.884;20.584;2022-07-17T07:28:07;2;2;2
50837;PMS5003;36815;50.884;20.584;2022-07-17T07:35:05;2;2;1
50837;PMS5003;36815;50.884;20.584;2022-07-17T07:42:05;2;2;1
50837;PMS5003;36815;50.884;20.584;2022-07-17T07:49:07;2;2;1
50837;PMS5003;36815;50.884;20.584;2022-07-17T07:56:15;2;2;1
50837;PMS5003;36815;50.884;20.584;2022-07-17T08:00:03;2;2;1
50837;PMS5003;36815;50.884;20.584;2022-07-17T08:14:17;2;2;1
50837;PMS5003;36815;50.884;20.584;2022-07-17T08:21:18;2;2;1
50837;PMS5003;36815;50.884;20.584;2022-07-17T08:28:07;2;2;1
50837;PMS5003;36815;50.884;20.584;2022-07-17T08:42:19;1;1;1
50837;PMS5003;36815;50.884;20.584;2022-07-17T08:49:24;1;1;1
50837;PMS5003;36815;50.884;20.584;2022-07-17T08:56:06;1;1;1
50837;PMS5003;36815;50.884;20.584;2022-07-17T09:00:04;1;1;1
50837;PMS5003;36815;50.884;20.584;2022-07-17T09:14:06;1;1;0
50837;PMS5003;36815;50.884;20.584;2022-07-17T09:21:02;1;1;0
50837;PMS5003;36815;50.884;20.584;2022-07-17T09:28:18;1;1;0
50837;PMS5003;36815;50.884;20.584;2022-07-17T09:35:24;1;1;0
50837;PMS5003;36815;50.884;20.584;2022-07-17T09:42:32;1;1;0
50837;PMS5003;36815;50.884;20.584;2022-07-17T09:49:02;1;1;0
50837;PMS5003;36815;50.884;20.584;2022-07-17T09:56:25;1;1;0
50837;PMS5003;36815;50.884;20.584;2022-07-17T10:00:12;1;1;0
50837;PMS5003;36815;50.884;20.584;2022-07-17T10:14:31;1;1;0
50837;PMS5003;36815;50.884;20.584;2022-07-17T10:21:31;1;1;0
50837;PMS5003;36815;50.884;20.584;2022-07-17T10:28:18;1;1;0
50837;PMS5003;36815;50.884;20.584;2022-07-17T10:35:12;1;1;0
50837;PMS5003;36815;50.884;20.584;2022-07-17T10:42:41;0;0;0
50837;PMS5003;36815;50.884;20.584;2022-07-17T10:49:03;0;0;0
50837;PMS5003;36815;50.884;20.584;2022-07-17T10:56:19;0;0;0
50837;PMS5003;36815;50.884;20.584;2022-07-17T11:00:04;0;0;0
50837;PMS5003;36815;50.884;20.584;2022-07-17T11:14:26;0;0;0
50837;PMS5003;36815;50.884;20.584;2022-07-17T11:21:19;0;0;0
50837;PMS5003;36815;50.884;20.584;2022-07-17T11:28:05;0;0;0
50837;PMS5003;36815;50.884;20.584;2022-07-17T11:35:02;0;0;0
50837;PMS5003;36815;50.884;20.584;2022-07-17T11:42:25;0;0;0
50837;PMS5003;36815;50.884;20.584;2022-07-17T11:49:05;0;0;0
50837;PMS5003;36815;50.884;20.584;2022-07-17T11:56:21;0;0;0
50837;PMS5003;36815;50.884;20.584;2022-07-17T12:00:08;0;0;0
50837;PMS5003;36815;50.884;20.584;2022-07-17T12:14:17;0;0;0
50837;PMS5003;36815;50.884;20.584;2022-07-17T12:21:05;0;0;0
50837;PMS5003;36815;50.884;20.584;2022-07-17T12:28:16;0;0;0
50837;PMS5003;36815;50.884;20.584;2022-07-17T12:35:13;0;0;0
50837;PMS5003;36815;50.884;20.584;2022-07-17T12:42:04;1;1;1
50837;PMS5003;36815;50.884;20.584;2022-07-17T12:49:25;1;1;1
50837;PMS5003;36815;50.884;20.584;2022-07-17T12:56:09;1;1;1
50837;PMS5003;36815;50.884;20.584;2022-07-17T13:00:02;1;1;1
50837;PMS5003;36815;50.884;20.584;2022-07-17T13:14:04;4;4;3
50837;PMS5003;36815;50.884;20.584;2022-07-17T13:21:02;4;4;3
50837;PMS5003;36815;50.884;20.584;2022-07-17T13:28:04;4;4;3
50837;PMS5003;36815;50.884;20.584;2022-07-17T13:35:22;4;4;3
50837;PMS5003;36815;50.884;20.584;2022-07-17T13:42:14;0;0;0
50837;PMS5003;36815;50.884;20.584;2022-07-17T13:49:21;0;0;0
50837;PMS5003;36815;50.884;20.584;2022-07-17T13:56:21;0;0;0
50837;PMS5003;36815;50.884;20.584;2022-07-17T14:00:33;0;0;0
50837;PMS5003;36815;50.884;20.584;2022-07-17T14:07:17;0;0;0
50837;PMS5003;36815;50.884;20.584;2022-07-17T14:14:06;0;0;0
50837;PMS5003;36815;50.884;20.584;2022-07-17T14:21:17;0;0;0
50837;PMS5003;36815;50.884;20.584;2022-07-17T14:28:16;0;0;0
50837;PMS5003;36815;50.884;20.584;2022-07-17T14:35:21;0;0;0
50837;PMS5003;36815;50.884;20.584;2022-07-17T14:42:16;0;0;0
50837;PMS5003;36815;50.884;20.584;2022-07-17T14:49:04;0;0;0
50837;PMS5003;36815;50.884;20.584;2022-07-17T14:56:19;0;0;0
50837;PMS5003;36815;50.884;20.584;2022-07-17T15:00:14;0;0;0
50837;PMS5003;36815;50.884;20.584;2022-07-17T15:07:07;0;0;0
50837;PMS5003;36815;50.884;20.584;2022-07-17T15:14:06;0;0;0
50837;PMS5003;36815;50.884;20.584;2022-07-17T15:21:15;0;0;0
50837;PMS5003;36815;50.884;20.584;2022-07-17T15:28:17;0;0;0
50837;PMS5003;36815;50.884;20.584;2022-07-17T15:35:02;0;0;0
50837;PMS5003;36815;50.884;20.584;2022-07-17T15:42:17;5;5;4
50837;PMS5003;36815;50.884;20.584;2022-07-17T15:49:01;5;5;4
50837;PMS5003;36815;50.884;20.584;2022-07-17T15:56:05;5;5;4
50837;PMS5003;36815;50.884;20.584;2022-07-17T16:00:11;5;5;4
50837;PMS5003;36815;50.884;20.584;2022-07-17T16:07:17;5;5;4
50837;PMS5003;36815;50.884;20.584;2022-07-17T16:14:14;0;0;0
50837;PMS5003;36815;50.884;20.584;2022-07-17T16:21:03;0;0;0
50837;PMS5003;36815;50.884;20.584;2022-07-17T16:28:04;0;0;0
50837;PMS5003;36815;50.884;20.584;2022-07-17T16:35:11;0;0;0
50837;PMS5003;36815;50.884;20.584;2022-07-17T16:42:20;4;3;3
50837;PMS5003;36815;50.884;20.584;2022-07-17T16:49:01;4;3;3
50837;PMS5003;36815;50.884;20.584;2022-07-17T16:56:17;4;3;3
50837;PMS5003;36815;50.884;20.584;2022-07-17T17:00:14;4;3;3
50837;PMS5003;36815;50.884;20.584;2022-07-17T17:07:03;4;3;3
50837;PMS5003;36815;50.884;20.584;2022-07-17T17:21:17;1;1;0
50837;PMS5003;36815;50.884;20.584;2022-07-17T17:28:15;1;1;0
50837;PMS5003;36815;50.884;20.584;2022-07-17T17:35:19;1;1;0
50837;PMS5003;36815;50.884;20.584;2022-07-17T17:49:20;1;1;1
50837;PMS5003;36815;50.884;20.584;2022-07-17T17:56:15;1;1;1
50837;PMS5003;36815;50.884;20.584;2022-07-17T18:00:03;1;1;1
50837;PMS5003;36815;50.884;20.584;2022-07-17T18:07:03;1;1;1
50837;PMS5003;36815;50.884;20.584;2022-07-17T18:21:07;2;2;1
50837;PMS5003;36815;50.884;20.584;2022-07-17T18:28:22;2;2;1
50837;PMS5003;36815;50.884;20.584;2022-07-17T18:35:09;2;2;1
50837;PMS5003;36815;50.884;20.584;2022-07-17T18:49:18;2;2;1
50837;PMS5003;36815;50.884;20.584;2022-07-17T18:56:11;2;2;1
50837;PMS5003;36815;50.884;20.584;2022-07-17T19:00:20;2;2;1
50837;PMS5003;36815;50.884;20.584;2022-07-17T19:07:06;2;2;1
50837;PMS5003;36815;50.884;20.584;2022-07-17T19:21:03;4;4;2
50837;PMS5003;36815;50.884;20.584;2022-07-17T19:28:09;4;4;2
50837;PMS5003;36815;50.884;20.584;2022-07-17T19:35:08;4;4;2
50837;PMS5003;36815;50.884;20.584;2022-07-17T19:49:21;8;7;4
50837;PMS5003;36815;50.884;20.584;2022-07-17T19:56:18;8;7;4
50837;PMS5003;36815;50.884;20.584;2022-07-17T20:00:01;8;7;4
50837;PMS5003;36815;50.884;20.584;2022-07-17T20:07:14;8;7;4
50837;PMS5003;36815;50.884;20.584;2022-07-17T20:21:14;9;9;7
50837;PMS5003;36815;50.884;20.584;2022-07-17T20:28:05;9;9;7
50837;PMS5003;36815;50.884;20.584;2022-07-17T20:35:06;9;9;7
50837;PMS5003;36815;50.884;20.584;2022-07-17T20:49:19;8;8;6
50837;PMS5003;36815;50.884;20.584;2022-07-17T20:56:20;8;8;6
50837;PMS5003;36815;50.884;20.584;2022-07-17T21:00:15;8;8;6
50837;PMS5003;36815;50.884;20.584;2022-07-17T21:07:02;8;8;6
50837;PMS5003;36815;50.884;20.584;2022-07-17T21:21:16;7;7;6
50837;PMS5003;36815;50.884;20.584;2022-07-17T21:28:08;7;7;6
50837;PMS5003;36815;50.884;20.584;2022-07-17T21:35:20;7;7;6
50837;PMS5003;36815;50.884;20.584;2022-07-17T21:49:02;8;7;5
50837;PMS5003;36815;50.884;20.584;2022-07-17T21:56:18;8;7;5
50837;PMS5003;36815;50.884;20.584;2022-07-17T22:00:18;8;7;5
50837;PMS5003;36815;50.884;20.584;2022-07-17T22:07:09;8;7;5
50837;PMS5003;36815;50.884;20.584;2022-07-17T22:14:06;12;10;7
50837;PMS5003;36815;50.884;20.584;2022-07-17T22:21:30;12;10;7
50837;PMS5003;36815;50.884;20.584;2022-07-17T22:28:04;12;10;7
50837;PMS5003;36815;50.884;20.584;2022-07-17T22:35:02;11;11;8
50837;PMS5003;36815;50.884;20.584;2022-07-17T22:42:06;11;11;8
50837;PMS5003;36815;50.884;20.584;2022-07-17T22:49:23;11;11;8
50837;PMS5003;36815;50.884;20.584;2022-07-17T22:56:14;11;11;8
50837;PMS5003;36815;50.884;20.584;2022-07-17T23:07:08;15;14;10
50837;PMS5003;36815;50.884;20.584;2022-07-17T23:14:18;15;14;10
50837;PMS5003;36815;50.884;20.584;2022-07-17T23:21:15;15;14;10
50837;PMS5003;36815;50.884;20.584;2022-07-17T23:28:06;15;14;10
50837;PMS5003;36815;50.884;20.584;2022-07-17T23:35:04;15;14;9
50837;PMS5003;36815;50.884;20.584;2022-07-17T23:42:17;15;14;9
50837;PMS5003;36815;50.884;20.584;2022-07-17T23:49:18;15;14;9
50837;PMS5003;36815;50.884;20.584;2022-07-17T23:56:20;15;14;9
